Time;durP1;ratioP1;P1;durP2;ratioP2;P2;SDS_P1;SDS_P2;PMS_P1;PMS_P2;Temp;Humidity;BMP_temperature;BMP_pressure;BME280_temperature;BME280_humidity;BME280_pressure;Samples;Min_cycle;Max_cycle;Signal;HPM_P1;HPM_P2
2021/11/27 00:00:45;;;;;;;28.30;18.40;;;;;;;2.49;100.00;100457.42;1789584;80;21061;-82
2021/11/27 00:03:13;;;;;;;31.10;19.02;;;;;;;2.53;100.00;100457.69;1795124;80;21014;-82
2021/11/27 00:05:43;;;;;;;29.95;19.70;;;;;;;2.57;100.00;100450.67;1789835;80;21021;-82
2021/11/27 00:08:13;;;;;;;30.12;20.45;;;;;;;2.58;100.00;100451.88;1795222;79;20998;-82
2021/11/27 00:10:44;;;;;;;27.10;18.73;;;;;;;2.60;100.00;100441.55;1789737;80;21057;-82
2021/11/27 00:13:12;;;;;;;29.57;20.32;;;;;;;2.60;100.00;100447.98;1794976;80;21578;-82
2021/11/27 00:15:40;;;;;;;29.37;21.40;;;;;;;2.61;100.00;100437.62;1795241;80;21049;-82
2021/11/27 00:18:11;;;;;;;32.85;20.30;;;;;;;2.61;100.00;100444.05;1794986;80;21010;-82
2021/11/27 00:20:55;;;;;;;30.05;19.60;;;;;;;2.61;100.00;100436.77;1789885;80;21262;-83
2021/11/27 00:23:23;;;;;;;;;;;;;;;2.61;100.00;100422.19;1794375;80;21117;-82
2021/11/27 00:25:53;;;;;;;28.65;18.80;;;;;;;2.67;100.00;100424.94;1795291;80;20139;-82
2021/11/27 00:28:21;;;;;;;27.35;18.82;;;;;;;2.67;100.00;100424.94;1794904;80;21055;-82
2021/11/27 00:30:51;;;;;;;26.02;16.95;;;;;;;2.68;100.00;100417.61;1795719;78;21420;-82
2021/11/27 00:33:20;;;;;;;25.82;17.52;;;;;;;2.73;100.00;100404.09;1798672;79;21557;-81
2021/11/27 00:35:48;;;;;;;26.93;17.42;;;;;;;2.80;100.00;100411.90;1798557;79;21001;-82
2021/11/27 00:38:15;;;;;;;24.50;17.17;;;;;;;2.88;100.00;100406.85;1798687;79;20977;-82
2021/11/27 00:40:44;;;;;;;23.32;15.88;;;;;;;2.95;100.00;100403.94;1798640;79;20949;-81
2021/11/27 00:43:13;;;;;;;23.80;17.15;;;;;;;3.00;100.00;100398.58;1798771;79;20995;-82
2021/11/27 00:45:42;;;;;;;26.95;16.17;;;;;;;3.06;100.00;100400.86;1798661;79;21900;-82
2021/11/27 00:48:13;;;;;;;23.20;16.87;;;;;;;3.09;100.00;100387.83;1798583;79;20993;-81
2021/11/27 00:50:54;;;;;;;27.27;17.15;;;;;;;3.14;100.00;100394.89;1798761;79;21012;-81
2021/11/27 00:53:23;;;;;;;24.87;17.42;;;;;;;3.18;100.00;100381.86;1798626;79;21050;-81
2021/11/27 00:55:51;;;;;;;26.75;17.20;;;;;;;3.19;100.00;100376.67;1798727;79;21051;-83
2021/11/27 00:58:19;;;;;;;25.72;16.85;;;;;;;3.19;100.00;100374.09;1798580;79;21139;-82
2021/11/27 01:00:54;;;;;;;23.27;16.77;;;;;;;3.18;100.00;100372.42;1767049;79;21432;-82
2021/11/27 01:03:25;;;;;;;26.57;17.23;;;;;;;3.18;100.00;100366.42;1763977;79;21091;-82
2021/11/27 01:05:57;;;;;;;25.05;17.48;;;;;;;3.18;100.00;100353.56;1783848;79;21474;-81
2021/11/27 01:08:26;;;;;;;22.93;16.43;;;;;;;3.16;100.00;100354.46;1767231;79;22198;-81
2021/11/27 01:11:02;;;;;;;25.27;17.60;;;;;;;3.18;100.00;100344.12;1767098;79;21908;-82
2021/11/27 01:13:31;;;;;;;23.60;16.30;;;;;;;3.19;100.00;100329.50;1796580;79;21048;-82
2021/11/27 01:16:00;;;;;;;25.00;17.50;;;;;;;3.19;100.00;100329.50;1767243;79;21419;-81
2021/11/27 01:18:27;;;;;;;26.35;18.20;;;;;;;3.17;100.00;100324.44;1798541;79;20973;-81
2021/11/27 01:21:02;;;;;;;25.57;17.70;;;;;;;3.17;100.00;100330.87;1798969;79;21033;-82
2021/11/27 01:23:30;;;;;;;24.77;17.60;;;;;;;3.16;100.00;100323.58;1767069;79;21736;-83
2021/11/27 01:25:59;;;;;;;27.07;18.15;;;;;;;3.16;100.00;100320.19;1798431;79;20965;-83
2021/11/27 01:28:27;;;;;;;26.90;17.07;;;;;;;3.14;100.00;100308.70;1767028;79;21550;-82
2021/11/27 01:30:57;;;;;;;27.02;18.75;;;;;;;3.14;100.00;100308.70;1798614;79;21063;-82
2021/11/27 01:33:27;;;;;;;25.50;18.23;;;;;;;3.16;100.00;100300.89;1767572;79;21021;-83
2021/11/27 01:35:54;;;;;;;23.10;16.02;;;;;;;3.21;100.00;100298.09;1798454;79;22316;-83
2021/11/27 01:38:22;;;;;;;28.07;17.70;;;;;;;3.24;100.00;100294.09;1798493;79;20974;-83
2021/11/27 01:40:49;;;;;;;25.08;16.67;;;;;;;3.31;100.00;100272.29;1798657;79;22097;-83
2021/11/27 01:43:17;;;;;;;25.57;17.17;;;;;;;3.31;100.00;100272.29;1798578;79;21033;-83
2021/11/27 01:45:45;;;;;;;26.80;17.67;;;;;;;3.40;100.00;100272.27;1798611;79;21530;-83
2021/11/27 01:48:16;;;;;;;23.83;17.35;;;;;;;3.40;100.00;100272.27;1766980;79;21093;-83
2021/11/27 01:50:55;;;;;;;22.50;16.17;;;;;;;3.42;100.00;100262.27;1798490;79;21008;-83
2021/11/27 01:53:23;;;;;;;23.85;16.93;;;;;;;3.47;100.00;100250.45;1798855;79;20982;-84
2021/11/27 01:56:00;;;;;;;24.50;16.65;;;;;;;3.47;100.00;100250.02;1798584;79;21001;-83
2021/11/27 01:58:29;;;;;;;25.15;16.97;;;;;;;3.50;100.00;100247.73;1767662;79;20930;-84
2021/11/27 02:01:06;;;;;;;26.07;17.23;;;;;;;3.50;100.00;100247.73;1797680;79;21032;-83
2021/11/27 02:03:34;;;;;;;27.32;17.60;;;;;;;3.47;100.00;100240.16;1798098;79;21639;-84
2021/11/27 02:06:18;;;;;;;23.45;16.77;;;;;;;3.47;100.00;100240.16;1793993;79;21004;-83
2021/11/27 02:08:49;;;;;;;24.07;17.25;;;;;;;3.43;100.00;100240.77;1798594;79;20961;-82
2021/11/27 02:11:22;;;;;;;28.52;17.25;;;;;;;3.41;100.00;100237.43;1767177;79;20984;-83
2021/11/27 02:13:49;;;;;;;23.30;15.15;;;;;;;3.41;100.00;100226.31;1756438;80;20977;-84
2021/11/27 02:16:17;;;;;;;26.85;17.20;;;;;;;3.41;100.00;100220.70;1756199;80;21022;-83
2021/11/27 02:18:46;;;;;;;25.95;17.23;;;;;;;3.44;100.00;100225.70;1760831;80;20978;-82
2021/11/27 02:21:18;;;;;;;26.55;18.23;;;;;;;3.44;100.00;100225.70;1797913;79;21507;-83
2021/11/27 02:23:47;;;;;;;26.68;18.02;;;;;;;3.45;100.00;100220.08;1757371;80;21545;-83
2021/11/27 02:26:20;;;;;;;27.70;17.10;;;;;;;3.44;100.00;100217.98;1757695;80;21986;-83
2021/11/27 02:29:05;;;;;;;27.13;18.48;;;;;;;3.43;100.00;100208.59;1781839;80;21053;-83
2021/11/27 02:31:39;;;;;;;28.23;18.10;;;;;;;3.43;100.00;100208.59;1780381;80;21598;-83
2021/11/27 02:34:13;;;;;;;25.27;16.57;;;;;;;3.44;100.00;100215.41;1784214;79;21117;-82
2021/11/27 02:36:50;;;;;;;23.67;17.25;;;;;;;3.44;100.00;100215.41;1770748;79;21569;-82
2021/11/27 02:39:20;;;;;;;26.02;16.20;;;;;;;3.45;100.00;100216.22;1766958;79;20993;-83
2021/11/27 02:41:53;;;;;;;26.48;18.17;;;;;;;3.47;100.00;100208.82;1770686;79;21048;-82
2021/11/27 02:44:18;;;;;;;24.43;17.30;;;;;;;3.46;100.00;100214.88;1740936;81;21005;-82
2021/11/27 02:46:45;;;;;;;23.55;16.25;;;;;;;3.48;100.00;100212.21;1770640;79;21533;-82
2021/11/27 02:49:12;;;;;;;23.12;16.17;;;;;;;3.47;100.00;100190.80;1770828;80;20988;-83
2021/11/27 02:51:40;;;;;;;23.32;15.50;;;;;;;3.50;100.00;100198.81;1770648;79;21157;-83
2021/11/27 02:54:09;;;;;;;21.55;14.65;;;;;;;3.50;100.00;100198.81;1770639;81;21411;-83
2021/11/27 02:56:38;;;;;;;24.52;15.48;;;;;;;3.51;100.00;100187.61;1744212;81;21001;-83
2021/11/27 02:59:18;;;;;;;25.25;15.90;;;;;;;3.51;100.00;100187.61;1770753;81;21049;-83
2021/11/27 03:01:52;;;;;;;25.05;15.28;;;;;;;3.54;100.00;100187.42;1770652;79;21008;-82
2021/11/27 03:04:26;;;;;;;21.10;14.15;;;;;;;3.57;100.00;100177.42;1766677;79;21159;-82
2021/11/27 03:06:53;;;;;;;21.30;14.43;;;;;;;3.63;100.00;100187.42;1688650;81;21489;-83
2021/11/27 03:09:21;;;;;;;20.92;13.98;;;;;;;3.68;100.00;100184.13;1728880;81;20950;-83
2021/11/27 03:11:54;;;;;;;24.00;15.10;;;;;;;3.74;100.00;100183.80;1739765;81;21066;-82
2021/11/27 03:14:23;;;;;;;19.40;14.03;;;;;;;3.79;100.00;100180.53;1770869;79;21035;-82
2021/11/27 03:16:52;;;;;;;19.80;13.32;;;;;;;3.85;100.00;100175.48;1770402;81;21145;-82
2021/11/27 03:19:20;;;;;;;19.80;13.38;;;;;;;3.90;100.00;100175.24;1770685;80;20985;-82
2021/11/27 03:21:48;;;;;;;21.27;13.70;;;;;;;3.97;100.00;100170.59;1771058;81;21478;-82
2021/11/27 03:24:16;;;;;;;20.20;13.65;;;;;;;4.02;100.00;100169.44;1744434;81;21074;-84
2021/11/27 03:26:43;;;;;;;23.35;14.00;;;;;;;4.08;100.00;100168.28;1770576;79;21072;-82
2021/11/27 03:29:11;;;;;;;18.20;12.82;;;;;;;4.12;100.00;100170.22;1744579;81;21098;-81
2021/11/27 03:31:39;;;;;;;18.82;13.88;;;;;;;4.15;100.00;100156.71;1770508;81;21542;-81
2021/11/27 03:34:08;;;;;;;18.60;13.55;;;;;;;4.19;100.00;100153.50;1770725;81;21510;-83
2021/11/27 03:36:35;;;;;;;21.07;13.50;;;;;;;4.21;100.00;100137.47;1770634;79;21009;-82
2021/11/27 03:39:06;;;;;;;16.37;12.30;;;;;;;4.23;100.00;100140.36;1770686;81;21016;-82
2021/11/27 03:41:34;;;;;;;20.20;13.35;;;;;;;4.25;100.00;100135.92;1770842;80;21159;-83
2021/11/27 03:44:01;;;;;;;18.15;13.10;;;;;;;4.26;100.00;100132.44;1770823;79;21092;-83
2021/11/27 03:46:28;;;;;;;22.10;13.32;;;;;;;4.28;100.00;100131.08;1770481;79;21005;-83
2021/11/27 03:48:58;;;;;;;19.62;12.55;;;;;;;4.29;100.00;100128.84;1770854;79;21479;-82
2021/11/27 03:51:28;;;;;;;21.57;13.10;;;;;;;4.29;100.00;100125.45;1767157;81;21028;-82
2021/11/27 03:53:56;;;;;;;18.98;13.38;;;;;;;4.27;100.00;100111.37;1794261;78;21493;-82
2021/11/27 03:56:29;;;;;;;19.00;12.85;;;;;;;4.28;100.00;100108.33;1832632;76;21094;-82
2021/11/27 03:59:00;;;;;;;20.05;12.70;;;;;;;4.25;100.00;100100.31;1807144;78;21079;-81
2021/11/27 04:01:28;;;;;;;17.23;12.15;;;;;;;4.25;100.00;100093.40;1807503;78;21047;-82
2021/11/27 04:03:57;;;;;;;19.32;12.30;;;;;;;4.25;100.00;100088.72;1807396;78;21007;-82
2021/11/27 04:06:24;;;;;;;16.23;12.18;;;;;;;4.28;100.00;100087.27;1788890;76;21769;-82
2021/11/27 04:08:54;;;;;;;15.78;11.45;;;;;;;4.32;100.00;100085.34;1771033;81;21031;-82
2021/11/27 04:11:22;;;;;;;16.52;11.25;;;;;;;4.34;100.00;100080.90;1770843;81;21529;-82
2021/11/27 04:13:52;;;;;;;19.63;11.53;;;;;;;4.35;100.00;100076.97;1770522;80;21573;-82
2021/11/27 04:16:19;;;;;;;17.27;10.90;;;;;;;4.37;100.00;100075.11;1744643;79;21084;-83
2021/11/27 04:18:47;;;;;;;15.58;9.63;;;;;;;4.40;100.00;100074.13;1771225;81;21104;-82
2021/11/27 04:21:14;;;;;;;15.30;10.15;;;;;;;4.44;100.00;100057.55;1745223;79;21132;-83
2021/11/27 04:23:42;;;;;;;15.40;9.85;;;;;;;4.49;100.00;100050.83;1775599;79;21079;-82
2021/11/27 04:26:11;;;;;;;15.75;9.75;;;;;;;4.54;100.00;100055.25;1771454;79;21245;-82
2021/11/27 04:28:40;;;;;;;14.35;9.30;;;;;;;4.60;100.00;100054.06;1755037;79;21012;-82
2021/11/27 04:31:09;;;;;;;14.07;9.53;;;;;;;4.65;100.00;100055.91;1783135;78;21090;-82
2021/11/27 04:33:37;;;;;;;12.98;8.33;;;;;;;4.68;100.00;100054.00;1766733;80;21577;-82
2021/11/27 04:36:08;;;;;;;14.45;9.55;;;;;;;4.71;100.00;100052.51;1800273;77;21038;-81
2021/11/27 04:38:36;;;;;;;15.20;9.50;;;;;;;4.75;100.00;100058.31;1806139;77;21523;-82
2021/11/27 04:41:05;;;;;;;14.98;9.38;;;;;;;4.77;100.00;100053.90;1786619;78;21065;-82
2021/11/27 04:43:34;;;;;;;14.47;9.75;;;;;;;4.78;100.00;100055.56;1786648;80;21199;-84
2021/11/27 04:46:03;;;;;;;12.78;9.08;;;;;;;4.79;100.00;100056.38;1786437;79;21053;-82
2021/11/27 04:48:30;;;;;;;11.60;8.90;;;;;;;4.79;100.00;100060.24;1812722;77;21057;-81
2021/11/27 04:50:58;;;;;;;12.82;8.30;;;;;;;4.80;100.00;100059.33;1803243;77;21013;-81
2021/11/27 04:53:26;;;;;;;12.53;9.18;;;;;;;4.78;100.00;100059.43;1772453;80;21060;-82
2021/11/27 04:55:56;;;;;;;14.13;9.38;;;;;;;4.78;100.00;100058.14;1797158;77;21192;-82
2021/11/27 04:58:24;;;;;;;12.45;8.18;;;;;;;4.77;100.00;100059.05;1818672;78;21506;-81
2021/11/27 05:00:54;;;;;;;12.65;9.10;;;;;;;4.78;100.00;100061.16;1787132;80;20998;-85
2021/11/27 05:03:23;;;;;;;15.25;8.50;;;;;;;4.77;100.00;100053.90;1782995;79;20986;-79
2021/11/27 05:05:50;;;;;;;14.90;7.83;;;;;;;4.85;100.00;100054.27;1787585;80;20937;-79
2021/11/27 05:08:17;;;;;;;19.35;8.15;;;;;;;4.96;100.00;100054.91;1787581;79;21182;-79
2021/11/27 05:10:45;;;;;;;14.03;8.75;;;;;;;5.04;100.00;100066.88;1758580;80;20970;-80
2021/11/27 05:13:13;;;;;;;14.87;8.45;;;;;;;5.12;100.00;100067.72;1787924;79;21124;-80
2021/11/27 05:15:40;;;;;;;11.30;8.30;;;;;;;5.23;100.00;100075.24;1758515;80;21040;-81
2021/11/27 05:18:09;;;;;;;12.82;8.80;;;;;;;5.31;100.00;100068.70;1758321;80;21041;-80
2021/11/27 05:20:44;;;;;;;14.55;9.65;;;;;;;5.41;100.00;100073.30;1783122;80;21210;-83
2021/11/27 05:23:15;;;;;;;10.05;7.95;;;;;;;5.47;100.00;100065.17;1786509;78;21586;-80
2021/11/27 05:25:43;;;;;;;13.00;8.13;;;;;;;5.53;100.00;100068.17;1783607;79;21039;-79
2021/11/27 05:28:29;;;;;;;13.20;7.50;;;;;;;5.55;100.00;100065.52;1788575;78;21555;-79
2021/11/27 05:31:01;;;;;;;10.55;6.83;;;;;;;5.56;100.00;100064.59;1788472;79;20982;-79
2021/11/27 05:36:05;;;;;;;18.52;7.22;;;;;;;5.54;100.00;100047.06;1685228;81;21014;-83
2021/11/27 05:38:33;;;;;;;13.58;7.25;;;;;;;5.53;100.00;100056.55;1779388;80;21122;-82
2021/11/27 05:41:00;;;;;;;15.20;7.28;;;;;;;5.50;100.00;100045.59;1766896;78;21054;-84
2021/11/27 05:43:28;;;;;;;14.73;7.67;;;;;;;5.45;100.00;100047.16;1784861;79;20966;-83
2021/11/27 05:45:57;;;;;;;13.40;6.85;;;;;;;5.43;100.00;100041.29;1789324;80;21151;-83
2021/11/27 05:48:26;;;;;;;14.15;7.00;;;;;;;5.42;100.00;100036.20;1813336;79;20978;-82
2021/11/27 05:50:58;;;;;;;13.62;7.42;;;;;;;5.46;100.00;100040.27;1798401;79;22223;-82
2021/11/27 05:53:25;;;;;;;13.38;7.10;;;;;;;5.48;100.00;100041.00;1818026;78;20982;-83
2021/11/27 05:55:52;;;;;;;11.83;7.22;;;;;;;5.46;100.00;100037.69;1818190;79;21013;-84
2021/11/27 05:58:21;;;;;;;11.30;6.90;;;;;;;5.48;100.00;100035.84;1817932;77;21809;-83
2021/11/27 06:00:50;;;;;;;10.55;6.85;;;;;;;5.49;100.00;100041.34;1845217;77;22171;-82
2021/11/27 06:03:17;;;;;;;10.18;7.15;;;;;;;5.55;100.00;100040.13;1820563;77;21497;-83
2021/11/27 06:05:45;;;;;;;13.13;7.70;;;;;;;5.56;100.00;100034.05;1786893;77;21590;-82
2021/11/27 06:08:12;;;;;;;12.47;7.20;;;;;;;5.56;100.00;100032.75;1798379;79;21037;-82
2021/11/27 06:10:40;;;;;;;14.25;6.87;;;;;;;5.56;100.00;100031.47;1808212;77;21201;-82
2021/11/27 06:13:09;;;;;;;10.05;6.62;;;;;;;5.58;100.00;100029.14;1784196;79;21037;-84
2021/11/27 06:15:38;;;;;;;15.07;7.97;;;;;;;5.60;100.00;100018.26;1817909;79;21072;-84
2021/11/27 06:18:06;;;;;;;10.15;7.17;;;;;;;5.62;100.00;100021.58;1817658;79;21029;-83
2021/11/27 06:20:33;;;;;;;10.18;7.17;;;;;;;5.66;100.00;100013.17;1803085;77;20981;-83
2021/11/27 06:23:01;;;;;;;10.58;7.25;;;;;;;5.66;100.00;100018.34;1809992;79;21129;-83
2021/11/27 06:25:28;;;;;;;9.58;7.12;;;;;;;5.67;100.00;100013.06;1794193;77;21155;-83
2021/11/27 06:27:57;;;;;;;18.73;7.60;;;;;;;5.71;100.00;100007.71;1797592;79;21467;-84
2021/11/27 06:30:25;;;;;;;11.95;6.40;;;;;;;5.74;100.00;100013.51;1806320;77;21045;-84
2021/11/27 06:32:53;;;;;;;10.30;6.60;;;;;;;5.79;100.00;100010.16;1817450;79;21021;-84
2021/11/27 06:35:21;;;;;;;9.60;6.42;;;;;;;5.84;100.00;100005.98;1788506;78;21061;-82
2021/11/27 06:37:49;;;;;;;11.45;7.33;;;;;;;5.86;100.00;100013.17;1817659;79;21040;-83
2021/11/27 06:40:16;;;;;;;12.68;7.08;;;;;;;5.89;100.00;100005.20;1814227;78;21009;-84
2021/11/27 06:43:00;;;;;;;10.85;7.65;;;;;;;5.91;100.00;99995.61;1813501;77;22366;-85
2021/11/27 06:45:30;;;;;;;11.60;7.25;;;;;;;5.94;100.00;99992.83;1809903;78;21045;-83
2021/11/27 06:48:06;;;;;;;13.05;7.72;;;;;;;5.98;100.00;99988.29;1817344;78;21105;-84
2021/11/27 06:50:33;;;;;;;11.88;7.28;;;;;;;5.98;100.00;99989.10;1816492;79;21057;-85
2021/11/27 06:53:00;;;;;;;11.33;6.60;;;;;;;5.98;100.00;99974.07;1812618;79;21557;-85
2021/11/27 06:55:28;;;;;;;10.63;7.85;;;;;;;5.99;100.00;99976.58;1813300;77;20985;-85
2021/11/27 06:57:55;;;;;;;9.75;7.20;;;;;;;6.00;100.00;99975.66;1781626;79;21016;-85
2021/11/27 07:00:22;;;;;;;10.00;6.97;;;;;;;5.99;100.00;99967.53;1782345;77;21540;-84
2021/11/27 07:02:57;;;;;;;11.88;6.92;;;;;;;6.02;100.00;99961.80;1796752;77;21080;-85
2021/11/27 07:05:42;;;;;;;10.53;7.15;;;;;;;6.02;100.00;99964.39;1756195;80;21502;-85
2021/11/27 07:08:11;;;;;;;12.23;7.87;;;;;;;6.00;100.00;99956.27;1748718;79;21544;-85
2021/11/27 07:10:42;;;;;;;10.78;7.05;;;;;;;6.02;100.00;99959.22;1796208;78;21021;-85
2021/11/27 07:13:14;;;;;;;10.43;7.03;;;;;;;6.00;100.00;99948.99;1816029;78;21577;-85
2021/11/27 07:15:41;;;;;;;12.25;7.25;;;;;;;5.98;100.00;99947.75;1818010;79;21029;-87
2021/11/27 07:18:08;;;;;;;12.00;7.10;;;;;;;5.99;100.00;99953.80;1784901;78;21120;-85
2021/11/27 07:20:35;;;;;;;10.25;7.08;;;;;;;5.99;100.00;99946.04;1811703;78;21065;-86
2021/11/27 07:23:05;;;;;;;10.23;7.08;;;;;;;5.99;100.00;99948.63;1809135;77;21084;-83
2021/11/27 07:25:34;;;;;;;9.33;7.40;;;;;;;5.99;100.00;99948.14;1801284;77;21825;-87
2021/11/27 07:28:15;;;;;;;11.83;7.67;;;;;;;5.99;100.00;99936.99;1817789;77;21554;-84
2021/11/27 07:30:44;;;;;;;16.52;7.28;;;;;;;5.97;100.00;99937.52;1818067;77;21074;-85
2021/11/27 07:33:11;;;;;;;12.78;6.83;;;;;;;5.96;100.00;99943.62;1788112;78;21037;-85
2021/11/27 07:35:38;;;;;;;8.90;6.90;;;;;;;5.94;100.00;99943.73;1817770;77;21009;-85
2021/11/27 07:38:05;;;;;;;8.55;6.08;;;;;;;5.92;100.00;99935.72;1819077;77;21123;-86
2021/11/27 07:40:33;;;;;;;8.40;6.60;;;;;;;5.90;100.00;99932.41;1817930;78;21625;-85
2021/11/27 07:43:01;;;;;;;8.35;6.97;;;;;;;5.90;100.00;99934.98;1792944;78;21024;-86
2021/11/27 07:45:36;;;;;;;8.15;6.53;;;;;;;5.90;100.00;99929.34;1811141;78;20978;-84
2021/11/27 07:48:20;;;;;;;9.85;6.15;;;;;;;5.92;100.00;99929.27;1790842;80;21032;-86
2021/11/27 07:51:07;;;;;;;11.65;6.95;;;;;;;5.94;100.00;99919.18;1812860;77;21107;-83
2021/11/27 07:53:41;;;;;;;12.18;7.10;;;;;;;5.94;100.00;99911.42;1818683;77;21033;-82
2021/11/27 07:56:08;;;;;;;14.40;7.25;;;;;;;5.92;100.00;99895.19;1818947;77;21025;-84
2021/11/27 07:58:36;;;;;;;13.93;7.37;;;;;;;5.92;100.00;99900.36;1816885;77;21072;-83
2021/11/27 08:01:09;;;;;;;18.23;8.05;;;;;;;5.90;100.00;99902.20;1787346;78;21531;-83
2021/11/27 08:03:34;;;;;;;12.13;8.00;;;;;;;5.90;100.00;99898.33;1791167;78;21114;-83
2021/11/27 08:06:02;;;;;;;12.55;7.05;;;;;;;5.91;100.00;99901.28;1792066;78;20981;-83
2021/11/27 08:08:29;;;;;;;11.93;7.92;;;;;;;5.90;100.00;99897.52;1817793;77;21037;-83
2021/11/27 08:10:56;;;;;;;10.63;8.18;;;;;;;5.90;100.00;99902.20;1817340;77;21018;-83
2021/11/27 08:13:25;;;;;;;13.75;8.20;;;;;;;5.88;100.00;99895.49;1817422;78;21555;-83
2021/11/27 08:15:53;;;;;;;11.35;7.20;;;;;;;5.85;100.00;99888.78;1819024;77;21055;-83
2021/11/27 08:18:20;;;;;;;12.98;8.20;;;;;;;5.82;100.00;99891.55;1817416;77;21429;-83
2021/11/27 08:20:50;;;;;;;10.95;7.05;;;;;;;5.80;100.00;99889.56;1817560;77;21002;-83
2021/11/27 08:23:18;;;;;;;12.50;7.30;;;;;;;5.77;100.00;99889.75;1817532;78;21032;-83
2021/11/27 08:25:47;;;;;;;11.73;7.45;;;;;;;5.74;100.00;99883.48;1818053;78;20998;-83
2021/11/27 08:28:14;;;;;;;11.50;7.08;;;;;;;5.72;100.00;99884.08;1817563;78;21139;-83
2021/11/27 08:30:42;;;;;;;10.63;6.65;;;;;;;5.67;100.00;99874.86;1817817;77;20998;-83
2021/11/27 08:33:09;;;;;;;11.30;7.60;;;;;;;5.65;100.00;99870.25;1819208;78;20982;-83
2021/11/27 08:35:36;;;;;;;10.48;6.60;;;;;;;5.63;100.00;99868.27;1817781;77;20959;-84
2021/11/27 08:38:03;;;;;;;9.95;6.60;;;;;;;5.63;100.00;99859.22;1817621;77;21518;-83
2021/11/27 08:40:30;;;;;;;13.15;7.70;;;;;;;5.62;100.00;99860.14;1817612;78;21847;-83
2021/11/27 08:42:58;;;;;;;11.20;6.55;;;;;;;5.61;100.00;99850.73;1817405;78;21033;-84
2021/11/27 08:45:27;;;;;;;9.73;6.62;;;;;;;5.59;100.00;99852.59;1819153;78;21001;-83
2021/11/27 08:47:54;;;;;;;13.32;7.45;;;;;;;5.58;100.00;99850.93;1817716;78;21030;-84
2021/11/27 08:50:21;;;;;;;9.18;6.62;;;;;;;5.58;100.00;99854.80;1819369;78;21556;-83
2021/11/27 08:52:49;;;;;;;9.33;6.10;;;;;;;5.57;100.00;99851.86;1817736;77;21796;-84
2021/11/27 08:55:18;;;;;;;7.80;5.30;;;;;;;5.55;100.00;99845.98;1817517;78;20986;-84
2021/11/27 08:57:46;;;;;;;9.60;6.50;;;;;;;5.53;100.00;99840.09;1819487;78;21131;-82
2021/11/27 09:00:15;;;;;;;10.63;6.42;;;;;;;5.51;100.00;99840.65;1817760;78;21056;-84
2021/11/27 09:02:46;;;;;;;10.53;7.08;;;;;;;5.49;100.00;99833.45;1817957;77;21535;-84
2021/11/27 09:05:13;;;;;;;10.20;6.97;;;;;;;5.48;100.00;99833.13;1813444;77;21859;-83
2021/11/27 09:07:42;;;;;;;12.30;7.70;;;;;;;5.45;100.00;99822.50;1817710;77;21013;-84
2021/11/27 09:10:11;;;;;;;10.30;7.22;;;;;;;5.48;100.00;99822.80;1817603;77;21069;-83
2021/11/27 09:12:38;;;;;;;12.88;7.97;;;;;;;5.49;100.00;99826.55;1817668;78;21030;-84
2021/11/27 09:15:07;;;;;;;11.93;7.72;;;;;;;5.51;100.00;99817.41;1817602;78;22523;-83
2021/11/27 09:17:34;;;;;;;11.28;8.35;;;;;;;5.56;100.00;99806.77;1817647;77;21117;-83
2021/11/27 09:20:01;;;;;;;13.90;8.98;;;;;;;5.62;100.00;99805.91;1792269;78;21009;-83
2021/11/27 09:22:29;;;;;;;11.03;8.60;;;;;;;5.68;100.00;99799.02;1819232;77;20998;-83
2021/11/27 09:24:58;;;;;;;12.75;9.00;;;;;;;5.72;100.00;99802.22;1817886;78;21604;-84
2021/11/27 09:27:26;;;;;;;10.80;8.98;;;;;;;5.73;100.00;99806.47;1817532;78;21114;-84
2021/11/27 09:29:53;;;;;;;13.98;9.38;;;;;;;5.75;100.00;99795.57;1818062;77;21116;-84
2021/11/27 09:32:20;;;;;;;13.78;8.78;;;;;;;5.76;100.00;99795.94;1817989;78;21070;-84
2021/11/27 09:34:48;;;;;;;12.37;8.15;;;;;;;5.79;100.00;99791.02;1792602;78;21163;-83
2021/11/27 09:37:17;;;;;;;16.37;8.63;;;;;;;5.79;100.00;99784.08;1817652;77;21053;-83
2021/11/27 09:39:45;;;;;;;13.50;9.08;;;;;;;5.78;100.00;99799.70;1817716;77;21005;-83
2021/11/27 09:42:18;;;;;;;11.68;8.90;;;;;;;5.76;100.00;99793.80;1817554;77;21152;-83
2021/11/27 09:44:51;;;;;;;13.70;8.70;;;;;;;5.74;100.00;99790.48;1817597;78;21486;-83
2021/11/27 09:47:19;;;;;;;12.47;8.50;;;;;;;5.72;100.00;99785.91;1817451;78;21050;-84
2021/11/27 09:49:48;;;;;;;15.40;9.20;;;;;;;5.71;100.00;99790.72;1817659;78;21036;-83
2021/11/27 09:52:18;;;;;;;11.55;8.93;;;;;;;5.69;100.00;99778.72;1817739;77;20998;-83
2021/11/27 09:54:45;;;;;;;16.73;9.65;;;;;;;5.68;100.00;99780.94;1817472;77;21961;-84
2021/11/27 09:57:13;;;;;;;12.07;8.85;;;;;;;5.69;100.00;99784.34;1792728;78;21013;-83
2021/11/27 09:59:43;;;;;;;19.02;10.08;;;;;;;5.69;100.00;99774.84;1817745;78;21522;-83
2021/11/27 10:02:17;;;;;;;15.23;10.43;;;;;;;5.69;100.00;99778.72;1818450;78;21010;-83
2021/11/27 10:04:52;;;;;;;16.85;11.38;;;;;;;5.69;100.00;99774.01;1817749;78;21064;-83
2021/11/27 10:07:21;;;;;;;17.62;11.50;;;;;;;5.68;100.00;99775.78;1811416;78;21287;-83
2021/11/27 10:09:52;;;;;;;18.60;11.83;;;;;;;5.69;100.00;99776.14;1792157;78;21026;-82
2021/11/27 10:12:21;;;;;;;19.00;11.35;;;;;;;5.70;100.00;99787.28;1818146;77;21040;-82
2021/11/27 10:14:49;;;;;;;17.57;11.25;;;;;;;5.69;100.00;99789.50;1817335;78;21571;-83
2021/11/27 10:17:20;;;;;;;18.12;11.57;;;;;;;5.69;100.00;99795.52;1817428;77;21041;-82
2021/11/27 10:19:53;;;;;;;23.30;12.50;;;;;;;5.70;100.00;99795.03;1792834;78;21766;-84
2021/11/27 10:22:28;;;;;;;18.02;12.37;;;;;;;5.69;100.00;99786.47;1817151;78;21591;-83
2021/11/27 10:24:56;;;;;;;17.82;12.35;;;;;;;5.69;100.00;99786.47;1811586;78;21072;-83
2021/11/27 10:27:29;;;;;;;19.82;12.82;;;;;;;5.71;100.00;99785.07;1818173;77;21586;-82
2021/11/27 10:30:00;;;;;;;23.60;12.28;;;;;;;5.73;100.00;99784.98;1817723;78;21498;-83
2021/11/27 10:32:36;;;;;;;20.77;12.60;;;;;;;5.73;100.00;99789.67;1818004;78;21073;-83
2021/11/27 10:35:09;;;;;;;20.82;12.75;;;;;;;5.74;100.00;99787.45;1813335;77;21127;-83
2021/11/27 10:37:47;;;;;;;22.80;12.90;;;;;;;5.79;100.00;99788.44;1818746;78;21002;-82
2021/11/27 10:40:26;;;;;;;19.52;13.43;;;;;;;5.79;100.00;99778.10;1822415;77;21476;-83
2021/11/27 10:43:02;;;;;;;22.98;14.28;;;;;;;5.83;100.00;99783.41;1820394;77;21029;-82
2021/11/27 10:45:33;;;;;;;20.72;13.78;;;;;;;5.86;100.00;99783.20;1819843;77;21778;-82
2021/11/27 10:48:18;;;;;;;21.90;13.65;;;;;;;5.89;100.00;99777.81;1822818;77;21462;-83
2021/11/27 10:50:58;;;;;;;22.42;13.90;;;;;;;5.92;100.00;99772.44;1822614;77;21594;-83
2021/11/27 10:53:31;;;;;;;25.23;15.00;;;;;;;5.94;100.00;99775.75;1823157;77;20986;-82
2021/11/27 10:56:09;;;;;;;22.30;14.35;;;;;;;5.97;100.00;99770.83;1822498;77;20998;-83
2021/11/27 10:59:06;;;;;;;21.23;13.75;;;;;;;5.99;100.00;99765.13;1821262;77;21028;-83
2021/11/27 11:01:59;;;;;;;20.95;14.10;;;;;;;6.04;100.00;99769.98;1822535;77;21068;-82
2021/11/27 11:04:27;;;;;;;22.05;13.90;;;;;;;6.06;100.00;99768.09;1814235;77;21697;-82
2021/11/27 11:07:16;;;;;;;26.52;14.50;;;;;;;6.09;100.00;99766.59;1822296;77;21013;-82
2021/11/27 11:10:22;;;;;;;23.25;14.65;;;;;;;6.12;100.00;99768.98;1822984;77;21013;-82
2021/11/27 11:12:55;;;;;;;25.55;14.93;;;;;;;6.14;100.00;99770.52;1820806;77;21102;-82
2021/11/27 11:15:33;;;;;;;27.90;15.72;;;;;;;6.16;100.00;99769.11;1822659;78;21568;-82
2021/11/27 11:18:19;;;;;;;23.20;15.00;;;;;;;6.17;100.00;99774.64;1822416;77;21437;-82
2021/11/27 11:20:55;;;;;;;22.85;14.55;;;;;;;6.20;100.00;99775.73;1821947;77;21045;-82
2021/11/27 11:23:35;;;;;;;23.05;14.65;;;;;;;6.23;100.00;99775.50;1803647;77;21069;-83
2021/11/27 11:26:12;;;;;;;20.85;13.83;;;;;;;6.26;100.00;99771.41;1803977;78;21120;-83
2021/11/27 11:28:54;;;;;;;21.23;14.55;;;;;;;6.29;100.00;99774.25;1818627;77;20951;-82
2021/11/27 11:31:35;;;;;;;23.90;14.18;;;;;;;6.31;100.00;99772.39;1821508;77;21559;-83
2021/11/27 11:34:02;;;;;;;21.93;14.00;;;;;;;6.34;100.00;99777.80;1818253;77;20978;-83